KBDL/BDL METAR and TAF weather

Enter ICAO airport designator
Station Type Date Time Source
KBDL METAR 2020/04/09 18:51 UTC NOAA

KBDL 091851Z 29011G26KT 8SM -RA FEW007 SCT017 OVC033 10/08 A2910 RMK AO2 PK WND 25026/1848 TSB07E29 SLP854 P0016 T01000078


Station Type Date Time Source
KBDL Decoded METAR 2020/04/09 18:51 UTC NOAA

BRADLEY INTERNATIONAL AIRPORT , CT, United States (KBDL) 41-56N 072-41W 60M
Apr 09, 2020 - 02:51 PM EDT / 2020.04.09 1851 UTC
Wind: from the WNW (290 degrees) at 13 MPH (11 KT) gusting to 30 MPH (26 KT):0
Visibility: 8 mile(s):0
Sky conditions: overcast
Weather: light rain
Precipitation last hour: 0.16 inches
Temperature: 50.0 F (10.0 C)
Dew Point: 46.0 F (7.8 C)
Relative Humidity: 86%
Pressure (altimeter): 29.1 in. Hg (985 hPa)
ob: KBDL 091851Z 29011G26KT 8SM -RA FEW007 SCT017 OVC033 10/08 A2910 RMK AO2 PK WND 25026/1848 TSB07E29 SLP854 P0016 T01000078
cycle: 19

Station Type Date Time Source
KBDL TAF 2020/04/09 18:42 UTC NOAA

TAF KBDL 091739Z 0918/1024 18011G23KT 2SM +TSRA BR OVC010CB
FM091900 25012G29KT 4SM -SHRA BR OVC020
FM092100 29016G41KT P6SM BKN045
FM092300 29015G40KT P6SM SCT070
FM100100 28012G30KT P6SM FEW250
FM100300 28011G18KT P6SM FEW250
FM101200 26014G26KT P6SM SCT070
FM101300 27015G27KT P6SM BKN060

Example: see airport list